OCN32B EDDW-EDDM
Flight info
| Callsign | OCN32B |
|---|---|
| Flight time | 0h 55m |
| Altitude | 31000 |
| Route | NIE2M NIE Z88 SAS DCT KUMER DCT SODRO T703 LULAR/N0452F300 T105 LANDU LANDU2B |
| Aircraft | A320/M-SDE3FGHIRWY/LB1 |
Departure
| Time | 2026-05-04 19:53 |
|---|---|
| Airport | Bremen Airport (EDDW) |
Arrival
| Time | 2026-05-04 20:49 |
|---|---|
| Airport | Munich Airport (EDDM) |
| Time | Latitude | Longitude | Altitude | Speed | Heading |
|---|---|---|---|---|---|
| 2026-05-04 19:30 | 53.05170 | 8.78535 | 14 ft | 0 kts | 49° |
| 2026-05-04 19:44 | 53.05169 | 8.78535 | 14 ft | 0 kts | 49° |
| 2026-05-04 19:44 | 53.05161 | 8.78518 | 14 ft | 2 kts | 49° |
| 2026-05-04 19:44 | 53.05151 | 8.78499 | 14 ft | 2 kts | 49° |
| 2026-05-04 19:45 | 53.05142 | 8.78483 | 13 ft | 0 kts | 49° |
| 2026-05-04 19:45 | 53.05133 | 8.78469 | 13 ft | 2 kts | 25° |
| 2026-05-04 19:45 | 53.05119 | 8.78463 | 13 ft | 2 kts | 359° |
| 2026-05-04 19:45 | 53.05104 | 8.78468 | 13 ft | 2 kts | 332° |
| 2026-05-04 19:46 | 53.05098 | 8.78475 | 13 ft | 1 kts | 315° |
| 2026-05-04 19:46 | 53.05094 | 8.78480 | 13 ft | 0 kts | 320° |
| 2026-05-04 19:48 | 53.05099 | 8.78473 | 13 ft | 1 kts | 320° |
| 2026-05-04 19:48 | 53.05114 | 8.78451 | 13 ft | 4 kts | 316° |
| 2026-05-04 19:49 | 53.05139 | 8.78401 | 13 ft | 6 kts | 304° |
| 2026-05-04 19:49 | 53.05162 | 8.78330 | 13 ft | 7 kts | 291° |
| 2026-05-04 19:49 | 53.05180 | 8.78237 | 13 ft | 9 kts | 285° |
| 2026-05-04 19:49 | 53.05192 | 8.78126 | 13 ft | 10 kts | 268° |
| 2026-05-04 19:50 | 53.05167 | 8.78005 | 13 ft | 11 kts | 242° |
| 2026-05-04 19:50 | 53.05117 | 8.77890 | 13 ft | 12 kts | 228° |
| 2026-05-04 19:50 | 53.05054 | 8.77777 | 13 ft | 13 kts | 227° |
| 2026-05-04 19:50 | 53.04986 | 8.77655 | 13 ft | 14 kts | 227° |
| 2026-05-04 19:51 | 53.04911 | 8.77536 | 13 ft | 15 kts | 214° |
| 2026-05-04 19:51 | 53.04816 | 8.77466 | 13 ft | 10 kts | 195° |
| 2026-05-04 19:51 | 53.04767 | 8.77451 | 13 ft | 3 kts | 183° |
| 2026-05-04 19:51 | 53.04765 | 8.77451 | 13 ft | 0 kts | 182° |
| 2026-05-04 19:52 | 53.04760 | 8.77450 | 13 ft | 6 kts | 182° |
| 2026-05-04 19:52 | 53.04668 | 8.77508 | 13 ft | 16 kts | 117° |
| 2026-05-04 19:52 | 53.04664 | 8.77702 | 13 ft | 23 kts | 88° |
| 2026-05-04 19:52 | 53.04682 | 8.78388 | 13 ft | 94 kts | 87° |
| 2026-05-04 19:53 | 53.04716 | 8.79828 | 18 ft | 153 kts | 86° |
| 2026-05-04 19:53 | 53.04748 | 8.81643 | 517 ft | 159 kts | 86° |
| 2026-05-04 19:53 | 53.04796 | 8.83487 | 1167 ft | 162 kts | 84° |
| 2026-05-04 19:53 | 53.04860 | 8.85315 | 1826 ft | 157 kts | 88° |
| 2026-05-04 19:54 | 53.04604 | 8.87074 | 2053 ft | 167 kts | 116° |
| 2026-05-04 19:54 | 53.03872 | 8.88689 | 2391 ft | 186 kts | 134° |
| 2026-05-04 19:54 | 53.02808 | 8.90089 | 2756 ft | 204 kts | 142° |
| 2026-05-04 19:54 | 53.01594 | 8.91512 | 3049 ft | 226 kts | 143° |
| 2026-05-04 19:55 | 53.00261 | 8.93057 | 3474 ft | 245 kts | 144° |
| 2026-05-04 19:55 | 52.98831 | 8.94725 | 3985 ft | 259 kts | 144° |
| 2026-05-04 19:55 | 52.97337 | 8.96478 | 4746 ft | 264 kts | 144° |
| 2026-05-04 19:55 | 52.95849 | 8.98232 | 5545 ft | 268 kts | 145° |
| 2026-05-04 19:56 | 52.94320 | 9.00034 | 6324 ft | 273 kts | 146° |
| 2026-05-04 19:56 | 52.92791 | 9.01836 | 7088 ft | 277 kts | 146° |
| 2026-05-04 19:56 | 52.91220 | 9.03683 | 7864 ft | 281 kts | 146° |
| 2026-05-04 19:56 | 52.89616 | 9.05571 | 8674 ft | 285 kts | 146° |
| 2026-05-04 19:57 | 52.88009 | 9.07462 | 9437 ft | 289 kts | 146° |
| 2026-05-04 19:57 | 52.86379 | 9.09379 | 10196 ft | 293 kts | 146° |
| 2026-05-04 19:57 | 52.84691 | 9.11358 | 10703 ft | 306 kts | 146° |
| 2026-05-04 19:57 | 52.82914 | 9.13440 | 11055 ft | 323 kts | 146° |
| 2026-05-04 19:58 | 52.81052 | 9.15622 | 11473 ft | 336 kts | 146° |
| 2026-05-04 19:58 | 52.79134 | 9.17873 | 12171 ft | 340 kts | 146° |
| 2026-05-04 19:58 | 52.77206 | 9.20131 | 12860 ft | 343 kts | 146° |
| 2026-05-04 19:58 | 52.75269 | 9.22399 | 13542 ft | 346 kts | 146° |
| 2026-05-04 19:59 | 52.73296 | 9.24709 | 14162 ft | 350 kts | 146° |
| 2026-05-04 19:59 | 52.71319 | 9.27022 | 14784 ft | 352 kts | 146° |
| 2026-05-04 19:59 | 52.69303 | 9.29373 | 15422 ft | 355 kts | 147° |
| 2026-05-04 19:59 | 52.67299 | 9.31708 | 16039 ft | 357 kts | 147° |
| 2026-05-04 20:00 | 52.65287 | 9.34051 | 16639 ft | 359 kts | 147° |
| 2026-05-04 20:00 | 52.63255 | 9.36420 | 17239 ft | 361 kts | 146° |
| 2026-05-04 20:00 | 52.61206 | 9.38876 | 17772 ft | 363 kts | 146° |
| 2026-05-04 20:00 | 52.59190 | 9.41312 | 18358 ft | 365 kts | 146° |
| 2026-05-04 20:01 | 52.57138 | 9.43791 | 18919 ft | 367 kts | 146° |
| 2026-05-04 20:01 | 52.55098 | 9.46247 | 19435 ft | 370 kts | 146° |
| 2026-05-04 20:01 | 52.53015 | 9.48754 | 19942 ft | 373 kts | 146° |
| 2026-05-04 20:01 | 52.50908 | 9.51280 | 20448 ft | 376 kts | 147° |
| 2026-05-04 20:02 | 52.48807 | 9.53796 | 20944 ft | 378 kts | 146° |
| 2026-05-04 20:02 | 52.46661 | 9.56358 | 21451 ft | 381 kts | 147° |
| 2026-05-04 20:02 | 52.44531 | 9.58902 | 21910 ft | 384 kts | 147° |
| 2026-05-04 20:02 | 52.42368 | 9.61482 | 22382 ft | 387 kts | 147° |
| 2026-05-04 20:03 | 52.40209 | 9.64053 | 22840 ft | 389 kts | 147° |
| 2026-05-04 20:03 | 52.38005 | 9.66673 | 23276 ft | 392 kts | 148° |
| 2026-05-04 20:03 | 52.35794 | 9.69299 | 23712 ft | 395 kts | 148° |
| 2026-05-04 20:03 | 52.33557 | 9.71952 | 24149 ft | 397 kts | 148° |
| 2026-05-04 20:04 | 52.31347 | 9.74572 | 24533 ft | 400 kts | 148° |
| 2026-05-04 20:04 | 52.29065 | 9.77273 | 24944 ft | 403 kts | 148° |
| 2026-05-04 20:04 | 52.26818 | 9.79927 | 25331 ft | 406 kts | 148° |
| 2026-05-04 20:04 | 52.24509 | 9.82653 | 25711 ft | 408 kts | 148° |
| 2026-05-04 20:05 | 52.22211 | 9.85361 | 26084 ft | 411 kts | 149° |
| 2026-05-04 20:05 | 52.19892 | 9.88095 | 26458 ft | 414 kts | 148° |
| 2026-05-04 20:05 | 52.17562 | 9.90836 | 26825 ft | 416 kts | 149° |
| 2026-05-04 20:05 | 52.15223 | 9.93583 | 27122 ft | 419 kts | 149° |
| 2026-05-04 20:06 | 52.12857 | 9.96357 | 27464 ft | 421 kts | 148° |
| 2026-05-04 20:06 | 52.10473 | 9.99148 | 27801 ft | 424 kts | 149° |
| 2026-05-04 20:06 | 52.08085 | 10.01941 | 28117 ft | 426 kts | 149° |
| 2026-05-04 20:06 | 52.05671 | 10.04758 | 28431 ft | 428 kts | 149° |
| 2026-05-04 20:07 | 52.03274 | 10.07549 | 28738 ft | 430 kts | 149° |
| 2026-05-04 20:07 | 52.00828 | 10.10399 | 29030 ft | 432 kts | 149° |
| 2026-05-04 20:07 | 51.98405 | 10.13220 | 29314 ft | 435 kts | 149° |
| 2026-05-04 20:07 | 51.95958 | 10.16064 | 29593 ft | 437 kts | 149° |
| 2026-05-04 20:08 | 51.93477 | 10.18941 | 29859 ft | 439 kts | 149° |
| 2026-05-04 20:08 | 51.91011 | 10.21798 | 30145 ft | 440 kts | 149° |
| 2026-05-04 20:08 | 51.88519 | 10.24682 | 30419 ft | 442 kts | 149° |
| 2026-05-04 20:08 | 51.85988 | 10.27607 | 30685 ft | 443 kts | 149° |
| 2026-05-04 20:09 | 51.83483 | 10.30494 | 30903 ft | 445 kts | 149° |
| 2026-05-04 20:09 | 51.78462 | 10.36275 | 30933 ft | 445 kts | 149° |
| 2026-05-04 20:10 | 51.73444 | 10.42038 | 30942 ft | 445 kts | 149° |
| 2026-05-04 20:10 | 51.68409 | 10.47803 | 30941 ft | 445 kts | 149° |
| 2026-05-04 20:11 | 51.63359 | 10.53566 | 30942 ft | 445 kts | 149° |
| 2026-05-04 20:11 | 51.58332 | 10.59288 | 30945 ft | 446 kts | 149° |
| 2026-05-04 20:12 | 51.53299 | 10.65002 | 30947 ft | 446 kts | 149° |
| 2026-05-04 20:12 | 51.48224 | 10.70748 | 30938 ft | 445 kts | 150° |
| 2026-05-04 20:13 | 51.43184 | 10.76437 | 30936 ft | 446 kts | 149° |
| 2026-05-04 20:13 | 51.38132 | 10.82127 | 30927 ft | 446 kts | 149° |
| 2026-05-04 20:14 | 51.33051 | 10.87830 | 30926 ft | 447 kts | 149° |
| 2026-05-04 20:14 | 51.27996 | 10.93491 | 30929 ft | 447 kts | 149° |
| 2026-05-04 20:15 | 51.22904 | 10.99177 | 30930 ft | 447 kts | 149° |
| 2026-05-04 20:15 | 51.17804 | 11.04857 | 30925 ft | 447 kts | 149° |
| 2026-05-04 20:16 | 51.12725 | 11.10498 | 30931 ft | 447 kts | 149° |
| 2026-05-04 20:16 | 51.07664 | 11.16102 | 30935 ft | 446 kts | 149° |
| 2026-05-04 20:17 | 51.02552 | 11.21748 | 30940 ft | 446 kts | 149° |
| 2026-05-04 20:17 | 50.97467 | 11.27346 | 30942 ft | 447 kts | 149° |
| 2026-05-04 20:18 | 50.92377 | 11.32938 | 30944 ft | 447 kts | 149° |
| 2026-05-04 20:18 | 50.87287 | 11.38515 | 30943 ft | 447 kts | 149° |
| 2026-05-04 20:19 | 50.82158 | 11.44120 | 30942 ft | 447 kts | 149° |
| 2026-05-04 20:19 | 50.77048 | 11.49689 | 30941 ft | 446 kts | 149° |
| 2026-05-04 20:20 | 50.71961 | 11.55213 | 30940 ft | 445 kts | 150° |
| 2026-05-04 20:20 | 50.69317 | 11.57507 | 30932 ft | 438 kts | 161° |
| 2026-05-04 20:20 | 50.66411 | 11.58935 | 30940 ft | 433 kts | 170° |
| 2026-05-04 20:21 | 50.60558 | 11.60909 | 30939 ft | 433 kts | 171° |
| 2026-05-04 20:21 | 50.51732 | 11.63868 | 30943 ft | 434 kts | 171° |
| 2026-05-04 20:22 | 50.45801 | 11.65889 | 30944 ft | 434 kts | 171° |
| 2026-05-04 20:22 | 50.39949 | 11.67891 | 30948 ft | 434 kts | 171° |
| 2026-05-04 20:23 | 50.34031 | 11.69915 | 30953 ft | 434 kts | 171° |
| 2026-05-04 20:23 | 50.28182 | 11.71911 | 30963 ft | 434 kts | 171° |
| 2026-05-04 20:24 | 50.22277 | 11.73922 | 30962 ft | 434 kts | 171° |
| 2026-05-04 20:24 | 50.16388 | 11.75924 | 30959 ft | 435 kts | 171° |
| 2026-05-04 20:25 | 50.10501 | 11.77918 | 30955 ft | 435 kts | 171° |
| 2026-05-04 20:25 | 50.04595 | 11.79917 | 30953 ft | 434 kts | 171° |
| 2026-05-04 20:26 | 49.98689 | 11.81907 | 30954 ft | 434 kts | 171° |
| 2026-05-04 20:26 | 49.92822 | 11.83877 | 30955 ft | 435 kts | 171° |
| 2026-05-04 20:27 | 49.86880 | 11.85871 | 30953 ft | 435 kts | 171° |
| 2026-05-04 20:27 | 49.80948 | 11.87854 | 30954 ft | 435 kts | 171° |
| 2026-05-04 20:28 | 49.75071 | 11.89817 | 30959 ft | 435 kts | 171° |
| 2026-05-04 20:28 | 49.69176 | 11.91779 | 30955 ft | 435 kts | 170° |
| 2026-05-04 20:29 | 49.63273 | 11.93743 | 30961 ft | 435 kts | 170° |
| 2026-05-04 20:29 | 49.57391 | 11.95690 | 30841 ft | 430 kts | 170° |
| 2026-05-04 20:30 | 49.54443 | 11.96666 | 30071 ft | 433 kts | 170° |
| 2026-05-04 20:30 | 49.51519 | 11.97629 | 29241 ft | 432 kts | 170° |
| 2026-05-04 20:30 | 49.48660 | 11.98575 | 28665 ft | 417 kts | 170° |
| 2026-05-04 20:30 | 49.45844 | 11.99507 | 27596 ft | 411 kts | 171° |
| 2026-05-04 20:31 | 49.43095 | 12.00413 | 26435 ft | 406 kts | 170° |
| 2026-05-04 20:31 | 49.40387 | 12.01301 | 25331 ft | 400 kts | 170° |
| 2026-05-04 20:31 | 49.37682 | 12.02188 | 24240 ft | 394 kts | 170° |
| 2026-05-04 20:31 | 49.35040 | 12.03053 | 23174 ft | 388 kts | 170° |
| 2026-05-04 20:32 | 49.32453 | 12.03900 | 22158 ft | 382 kts | 170° |
| 2026-05-04 20:32 | 49.29883 | 12.04741 | 21144 ft | 377 kts | 171° |
| 2026-05-04 20:32 | 49.27378 | 12.05560 | 20168 ft | 371 kts | 170° |
| 2026-05-04 20:32 | 49.24871 | 12.06379 | 19196 ft | 365 kts | 170° |
| 2026-05-04 20:33 | 49.22445 | 12.07169 | 18734 ft | 361 kts | 171° |
| 2026-05-04 20:33 | 49.19981 | 12.07971 | 18491 ft | 362 kts | 171° |
| 2026-05-04 20:33 | 49.17532 | 12.08768 | 18224 ft | 361 kts | 171° |
| 2026-05-04 20:33 | 49.15069 | 12.09568 | 17975 ft | 360 kts | 171° |
| 2026-05-04 20:34 | 49.12637 | 12.10359 | 17734 ft | 358 kts | 171° |
| 2026-05-04 20:34 | 49.10213 | 12.11145 | 17483 ft | 356 kts | 171° |
| 2026-05-04 20:34 | 49.07800 | 12.11927 | 17228 ft | 355 kts | 170° |
| 2026-05-04 20:34 | 49.05402 | 12.12705 | 16980 ft | 353 kts | 171° |
| 2026-05-04 20:35 | 49.03008 | 12.13479 | 16726 ft | 352 kts | 170° |
| 2026-05-04 20:35 | 49.00608 | 12.14254 | 16431 ft | 351 kts | 170° |
| 2026-05-04 20:35 | 48.98232 | 12.15021 | 16034 ft | 349 kts | 170° |
| 2026-05-04 20:35 | 48.95867 | 12.15784 | 15602 ft | 346 kts | 170° |
| 2026-05-04 20:36 | 48.93527 | 12.16540 | 15172 ft | 344 kts | 170° |
| 2026-05-04 20:36 | 48.91208 | 12.17286 | 14735 ft | 343 kts | 170° |
| 2026-05-04 20:36 | 48.88876 | 12.18037 | 14290 ft | 341 kts | 170° |
| 2026-05-04 20:36 | 48.86549 | 12.18785 | 13836 ft | 339 kts | 170° |
| 2026-05-04 20:37 | 48.84284 | 12.19512 | 13396 ft | 337 kts | 170° |
| 2026-05-04 20:37 | 48.81994 | 12.20247 | 12938 ft | 336 kts | 170° |
| 2026-05-04 20:37 | 48.79726 | 12.20973 | 12489 ft | 334 kts | 169° |
| 2026-05-04 20:37 | 48.77445 | 12.21703 | 12037 ft | 332 kts | 169° |
| 2026-05-04 20:38 | 48.75209 | 12.22418 | 11593 ft | 329 kts | 169° |
| 2026-05-04 20:38 | 48.72998 | 12.23125 | 11153 ft | 327 kts | 169° |
| 2026-05-04 20:38 | 48.70766 | 12.23838 | 10701 ft | 325 kts | 169° |
| 2026-05-04 20:38 | 48.68581 | 12.24536 | 10323 ft | 319 kts | 169° |
| 2026-05-04 20:39 | 48.66447 | 12.25218 | 10150 ft | 307 kts | 168° |
| 2026-05-04 20:39 | 48.64393 | 12.25874 | 10033 ft | 294 kts | 168° |
| 2026-05-04 20:39 | 48.62463 | 12.26489 | 9912 ft | 282 kts | 168° |
| 2026-05-04 20:39 | 48.60544 | 12.27168 | 9550 ft | 281 kts | 162° |
| 2026-05-04 20:40 | 48.58759 | 12.28311 | 9181 ft | 280 kts | 152° |
| 2026-05-04 20:40 | 48.57126 | 12.29859 | 8824 ft | 279 kts | 147° |
| 2026-05-04 20:40 | 48.55512 | 12.31507 | 8474 ft | 277 kts | 146° |
| 2026-05-04 20:40 | 48.53941 | 12.33124 | 8137 ft | 275 kts | 146° |
| 2026-05-04 20:41 | 48.52325 | 12.34678 | 7783 ft | 273 kts | 156° |
| 2026-05-04 20:41 | 48.50514 | 12.35220 | 7423 ft | 270 kts | 184° |
| 2026-05-04 20:41 | 48.48721 | 12.34427 | 7083 ft | 269 kts | 210° |
| 2026-05-04 20:41 | 48.47361 | 12.32565 | 6742 ft | 269 kts | 235° |
| 2026-05-04 20:42 | 48.46428 | 12.30129 | 6412 ft | 268 kts | 240° |
| 2026-05-04 20:42 | 48.45537 | 12.27667 | 6073 ft | 267 kts | 240° |
| 2026-05-04 20:42 | 48.44644 | 12.25227 | 5732 ft | 267 kts | 240° |
| 2026-05-04 20:42 | 48.43742 | 12.22781 | 5393 ft | 267 kts | 240° |
| 2026-05-04 20:43 | 48.42861 | 12.20406 | 5273 ft | 257 kts | 240° |
| 2026-05-04 20:43 | 48.42010 | 12.18120 | 5251 ft | 243 kts | 240° |
| 2026-05-04 20:43 | 48.41203 | 12.15955 | 5217 ft | 232 kts | 240° |
| 2026-05-04 20:43 | 48.40435 | 12.13896 | 5170 ft | 220 kts | 240° |
| 2026-05-04 20:44 | 48.39711 | 12.11921 | 5103 ft | 215 kts | 243° |
| 2026-05-04 20:44 | 48.39075 | 12.09919 | 4983 ft | 214 kts | 250° |
| 2026-05-04 20:44 | 48.38657 | 12.07781 | 4713 ft | 213 kts | 259° |
| 2026-05-04 20:44 | 48.38452 | 12.05582 | 4436 ft | 212 kts | 266° |
| 2026-05-04 20:45 | 48.38325 | 12.03400 | 4244 ft | 205 kts | 267° |
| 2026-05-04 20:45 | 48.38191 | 12.01284 | 3968 ft | 202 kts | 266° |
| 2026-05-04 20:45 | 48.38035 | 11.99184 | 3669 ft | 200 kts | 266° |
| 2026-05-04 20:45 | 48.37841 | 11.97156 | 3379 ft | 198 kts | 265° |
| 2026-05-04 20:46 | 48.37641 | 11.95138 | 3065 ft | 190 kts | 267° |
| 2026-05-04 20:46 | 48.37492 | 11.93242 | 2843 ft | 173 kts | 268° |
| 2026-05-04 20:46 | 48.37421 | 11.91501 | 2562 ft | 162 kts | 270° |
| 2026-05-04 20:46 | 48.37277 | 11.89868 | 2283 ft | 154 kts | 261° |
| 2026-05-04 20:47 | 48.37121 | 11.88350 | 2137 ft | 140 kts | 267° |
| 2026-05-04 20:47 | 48.37038 | 11.86935 | 1931 ft | 133 kts | 267° |
| 2026-05-04 20:47 | 48.36950 | 11.85572 | 1783 ft | 132 kts | 265° |
| 2026-05-04 20:47 | 48.36840 | 11.84203 | 1738 ft | 130 kts | 265° |
| 2026-05-04 20:48 | 48.36728 | 11.82848 | 1663 ft | 127 kts | 265° |
| 2026-05-04 20:48 | 48.36643 | 11.81536 | 1476 ft | 124 kts | 265° |
| 2026-05-04 20:48 | 48.36559 | 11.80368 | 1462 ft | 101 kts | 264° |
| 2026-05-04 20:48 | 48.36498 | 11.79528 | 1466 ft | 51 kts | 263° |
| 2026-05-04 20:49 | 48.36447 | 11.79080 | 1469 ft | 36 kts | 247° |
| 2026-05-04 20:49 | 48.36335 | 11.78783 | 1471 ft | 29 kts | 238° |
| 2026-05-04 20:49 | 48.36228 | 11.78556 | 1473 ft | 24 kts | 232° |
| 2026-05-04 20:49 | 48.36131 | 11.78349 | 1474 ft | 23 kts | 252° |
| 2026-05-04 20:50 | 48.36113 | 11.78115 | 1474 ft | 22 kts | 262° |
| 2026-05-04 20:50 | 48.36094 | 11.77890 | 1475 ft | 21 kts | 263° |
| 2026-05-04 20:50 | 48.36075 | 11.77705 | 1475 ft | 12 kts | 244° |
| 2026-05-04 20:50 | 48.35996 | 11.77671 | 1476 ft | 13 kts | 172° |
| 2026-05-04 20:51 | 48.35904 | 11.77687 | 1477 ft | 13 kts | 174° |
| 2026-05-04 20:51 | 48.35807 | 11.77703 | 1477 ft | 14 kts | 173° |
| 2026-05-04 20:51 | 48.35699 | 11.77721 | 1478 ft | 15 kts | 174° |
| 2026-05-04 20:51 | 48.35589 | 11.77740 | 1479 ft | 16 kts | 173° |
| 2026-05-04 20:52 | 48.35474 | 11.77760 | 1480 ft | 17 kts | 174° |
| 2026-05-04 20:52 | 48.35359 | 11.77786 | 1481 ft | 13 kts | 155° |
| 2026-05-04 20:52 | 48.35334 | 11.77885 | 1481 ft | 11 kts | 84° |
| 2026-05-04 20:52 | 48.35344 | 11.78006 | 1481 ft | 12 kts | 82° |
| 2026-05-04 20:53 | 48.35360 | 11.78137 | 1481 ft | 13 kts | 79° |
| 2026-05-04 20:53 | 48.35369 | 11.78237 | 1480 ft | 0 kts | 82° |
| 2026-05-04 20:53 | 48.35371 | 11.78259 | 1480 ft | 3 kts | 84° |
| 2026-05-04 20:53 | 48.35374 | 11.78305 | 1480 ft | 1 kts | 84° |
| 2026-05-04 20:54 | 48.35375 | 11.78314 | 1480 ft | 0 kts | 83° |